createdAt,value
2023-05-15T00:01:24.665Z,99737.00
2023-05-15T00:03:52.285Z,99749.38
2023-05-15T00:06:20.023Z,99759.13
2023-05-15T00:08:47.072Z,99759.25
2023-05-15T00:11:14.067Z,99766.25
2023-05-15T00:13:41.145Z,99776.03
2023-05-15T00:16:09.449Z,99778.66
2023-05-15T00:18:36.786Z,99776.00
2023-05-15T00:21:03.927Z,99789.25
2023-05-15T00:23:30.989Z,99781.31
2023-05-15T00:25:57.957Z,99792.88
2023-05-15T00:28:25.414Z,99800.69
2023-05-15T00:30:52.594Z,99799.06
2023-05-15T00:33:19.621Z,99797.31
2023-05-15T00:35:46.661Z,99786.72
2023-05-15T00:38:13.701Z,99799.09
2023-05-15T00:40:42.940Z,99804.47
2023-05-15T00:43:11.395Z,99806.28
2023-05-15T00:45:41.482Z,99808.09
2023-05-15T00:48:10.724Z,99805.53
2023-05-15T00:50:41.618Z,99817.97
2023-05-15T00:53:08.723Z,99832.25
2023-05-15T00:55:36.778Z,99844.81
2023-05-15T00:58:04.211Z,99860.78
2023-05-15T01:00:33.181Z,99873.28
2023-05-15T01:03:02.028Z,99893.56
2023-05-15T01:05:29.525Z,99903.31
2023-05-15T01:08:17.529Z,99918.34
2023-05-15T01:10:45.889Z,99927.25
2023-05-15T01:13:15.245Z,99943.94
2023-05-15T01:15:43.837Z,99947.50
2023-05-15T01:18:10.892Z,99943.88
2023-05-15T01:21:22.512Z,99936.81
2023-05-15T01:24:29.527Z,99934.16
2023-05-15T01:27:24.194Z,99939.47
2023-05-15T01:30:16.660Z,99941.28
2023-05-15T01:33:25.809Z,99940.38
2023-05-15T01:36:25.178Z,99943.06
2023-05-15T01:38:57.523Z,99938.69
2023-05-15T01:41:55.185Z,99942.19
2023-05-15T01:44:33.607Z,99951.00
2023-05-15T01:47:10.741Z,99944.81
2023-05-15T01:49:39.763Z,99942.19
2023-05-15T01:52:16.912Z,99946.63
2023-05-15T01:54:44.764Z,99949.34
2023-05-15T01:57:13.835Z,99951.09
2023-05-15T01:59:43.080Z,99953.75
2023-05-15T02:02:11.438Z,99965.22
2023-05-15T02:04:40.605Z,99968.78
2023-05-15T02:07:08.006Z,99967.91
2023-05-15T02:09:36.064Z,99970.53
2023-05-15T02:12:03.899Z,99974.19
2023-05-15T02:14:31.899Z,99976.00
2023-05-15T02:16:58.950Z,99983.06
2023-05-15T02:19:26.303Z,99986.59
2023-05-15T02:21:53.346Z,99990.06
2023-05-15T02:24:20.718Z,99995.34
2023-05-15T02:27:04.547Z,99993.56
2023-05-15T02:30:00.605Z,99984.84
2023-05-15T02:33:15.204Z,99991.91
2023-05-15T02:35:59.831Z,99987.50
2023-05-15T02:38:50.136Z,100001.69
2023-05-15T02:41:17.869Z,100003.44
2023-05-15T02:43:46.315Z,100010.53
2023-05-15T02:46:15.542Z,100022.00
2023-05-15T02:48:43.748Z,100032.59
2023-05-15T02:51:11.134Z,100032.63
2023-05-15T02:53:42.305Z,100042.31
2023-05-15T02:56:10.191Z,100054.66
2023-05-15T02:58:38.688Z,100064.38
2023-05-15T03:01:06.304Z,100069.66
2023-05-15T03:03:33.371Z,100081.13
2023-05-15T03:06:01.120Z,100101.41
2023-05-15T03:08:28.499Z,100103.16
2023-05-15T03:10:55.477Z,100111.94
2023-05-15T03:13:22.513Z,100126.03
2023-05-15T03:15:49.486Z,100129.50
2023-05-15T03:18:18.935Z,100147.19
2023-05-15T03:20:48.550Z,100155.88
2023-05-15T03:23:15.799Z,100164.69
2023-05-15T03:25:42.813Z,100190.34
2023-05-15T03:28:09.930Z,100203.59
2023-05-15T03:30:37.323Z,100196.53
2023-05-15T03:33:05.364Z,100210.69
2023-05-15T03:35:32.575Z,100200.94
2023-05-15T03:37:59.689Z,100202.63
2023-05-15T03:40:26.753Z,100210.44
2023-05-15T03:42:53.862Z,100225.44
2023-05-15T03:45:21.393Z,100222.75
2023-05-15T03:47:48.786Z,100240.31
2023-05-15T03:50:16.322Z,100251.66
2023-05-15T03:52:43.460Z,100249.84
2023-05-15T03:55:10.644Z,100255.03
2023-05-15T03:57:37.783Z,100260.34
2023-05-15T04:00:10.212Z,100267.34
2023-05-15T04:02:38.261Z,100278.06
2023-05-15T04:05:06.861Z,100285.22
2023-05-15T04:07:36.402Z,100285.28
2023-05-15T04:10:04.176Z,100286.16
2023-05-15T04:12:34.025Z,100288.72
2023-05-15T04:15:25.377Z,100290.38
2023-05-15T04:17:53.946Z,100301.88
2023-05-15T04:20:24.220Z,100306.28
2023-05-15T04:22:52.543Z,100309.00
2023-05-15T04:25:20.551Z,100317.84
2023-05-15T04:27:47.811Z,100323.22
2023-05-15T04:30:14.947Z,100318.91
2023-05-15T04:32:42.449Z,100343.69
2023-05-15T04:35:12.242Z,100341.97
2023-05-15T04:37:45.705Z,100340.34
2023-05-15T04:40:15.002Z,100328.97
2023-05-15T04:43:45.701Z,100344.88
2023-05-15T04:46:13.005Z,100366.97
2023-05-15T04:48:40.299Z,100361.72
2023-05-15T04:51:07.807Z,100357.34
2023-05-15T04:53:35.242Z,100362.66
2023-05-15T04:56:03.159Z,100359.16
2023-05-15T04:58:30.859Z,100360.03
2023-05-15T05:00:58.307Z,100358.28
2023-05-15T05:03:25.816Z,100356.50
2023-05-15T05:05:52.948Z,100365.38
2023-05-15T05:08:20.315Z,100358.31
2023-05-15T05:10:47.546Z,100356.56
2023-05-15T05:13:14.550Z,100345.09
2023-05-15T05:15:41.894Z,100349.50
2023-05-15T05:18:09.125Z,100351.28
2023-05-15T05:20:36.751Z,100350.41
2023-05-15T05:23:03.879Z,100359.25
2023-05-15T05:25:31.125Z,100368.19
2023-05-15T05:27:58.136Z,100382.34
2023-05-15T05:30:25.091Z,100391.22
2023-05-15T05:32:52.186Z,100393.88
2023-05-15T05:35:19.378Z,100383.25
2023-05-15T05:37:46.354Z,100378.84
2023-05-15T05:40:13.653Z,100375.28
2023-05-15T05:42:41.676Z,100366.47
2023-05-15T05:45:09.345Z,100377.09
2023-05-15T05:47:36.320Z,100378.84
2023-05-15T05:50:03.835Z,100383.28
2023-05-15T05:52:31.025Z,100385.06
2023-05-15T05:54:58.030Z,100395.69
2023-05-15T05:57:25.053Z,100387.75
2023-05-15T05:59:52.104Z,100393.91
2023-05-15T06:02:19.440Z,100403.66
2023-05-15T06:05:03.196Z,100428.41
2023-05-15T06:07:30.817Z,100431.97
2023-05-15T06:09:58.078Z,100438.16
2023-05-15T06:12:25.115Z,100440.81
2023-05-15T06:14:52.519Z,100454.09
2023-05-15T06:17:19.903Z,100445.25
2023-05-15T06:19:47.041Z,100426.66
2023-05-15T06:22:14.012Z,100439.00
2023-05-15T06:24:41.198Z,100416.78
2023-05-15T06:27:08.153Z,100404.31
2023-05-15T06:30:04.285Z,100381.25
2023-05-15T06:32:34.401Z,100352.78
2023-05-15T06:35:02.348Z,100326.22
2023-05-15T06:37:30.340Z,100287.31
2023-05-15T06:39:57.464Z,100275.66
2023-05-15T06:42:24.854Z,100259.59
2023-05-15T06:44:51.831Z,100229.53
2023-05-15T06:47:18.818Z,100213.41
2023-05-15T06:49:45.900Z,100200.06
2023-05-15T06:52:15.707Z,100198.00
2023-05-15T06:54:43.406Z,100186.41
2023-05-15T06:57:10.688Z,100170.19
2023-05-15T06:59:37.743Z,100165.28
2023-05-15T07:02:05.798Z,100146.56
2023-05-15T07:04:33.103Z,100116.44
2023-05-15T07:07:00.214Z,100118.09
2023-05-15T07:09:27.377Z,100116.78
2023-05-15T07:11:54.393Z,100112.78
2023-05-15T07:14:21.346Z,100093.75
2023-05-15T07:16:48.764Z,100071.63
2023-05-15T07:19:21.146Z,100058.09
2023-05-15T07:21:48.337Z,100025.31
2023-05-15T07:24:15.338Z,100018.75
2023-05-15T07:26:54.060Z,100026.69
2023-05-15T07:29:25.579Z,99983.75
2023-05-15T07:31:52.894Z,99966.31
2023-05-15T07:34:20.013Z,99922.28
2023-05-15T07:36:47.036Z,99923.13
2023-05-15T07:39:14.153Z,99895.97
2023-05-15T07:41:41.615Z,99889.97
2023-05-15T07:44:08.769Z,99869.59
2023-05-15T07:46:36.328Z,99889.38
2023-05-15T07:49:03.532Z,99852.06
2023-05-15T07:51:32.750Z,99823.47
2023-05-15T07:53:59.764Z,99820.66
2023-05-15T07:56:27.060Z,99846.31
2023-05-15T07:58:54.322Z,99801.97
2023-05-15T08:01:21.375Z,99802.00
2023-05-15T08:03:48.495Z,99821.94
2023-05-15T08:06:18.565Z,99769.31
2023-05-15T08:08:45.563Z,99781.28
2023-05-15T08:11:12.695Z,99653.88
2023-05-15T08:13:39.684Z,99652.34
2023-05-15T08:16:06.967Z,99704.31
2023-05-15T08:18:34.152Z,99667.06
2023-05-15T08:21:02.939Z,99634.44
2023-05-15T08:23:31.605Z,99547.72
2023-05-15T08:25:59.379Z,99483.13
2023-05-15T08:28:26.814Z,99462.97
2023-05-15T08:30:54.116Z,99432.78
2023-05-15T08:33:21.587Z,99473.50
2023-05-15T08:35:48.721Z,99406.22
2023-05-15T08:38:15.847Z,99440.94
2023-05-15T08:40:47.761Z,99388.72
2023-05-15T08:43:18.221Z,99445.28
2023-05-15T08:45:49.410Z,99414.94
2023-05-15T08:48:21.323Z,99386.78
2023-05-15T08:50:49.880Z,99391.56
2023-05-15T08:53:18.793Z,99386.34
2023-05-15T08:55:46.294Z,99346.34
2023-05-15T08:58:19.976Z,99346.91
2023-05-15T09:00:47.402Z,99327.25
2023-05-15T09:03:17.605Z,99343.69
2023-05-15T09:05:46.653Z,99299.84
2023-05-15T09:08:17.360Z,99244.81
2023-05-15T09:10:44.783Z,99208.03
2023-05-15T09:13:12.527Z,99244.84
2023-05-15T09:15:40.847Z,99172.31
2023-05-15T09:18:09.047Z,99163.06
2023-05-15T09:20:38.293Z,99181.38
2023-05-15T09:23:22.904Z,99116.75
2023-05-15T09:25:54.140Z,99120.66
2023-05-15T09:28:33.481Z,98921.97
2023-05-15T09:31:05.911Z,99099.00
2023-05-15T09:33:40.378Z,99019.91
2023-05-15T09:36:08.919Z,98995.16
2023-05-15T09:38:42.642Z,98869.13
2023-05-15T09:41:10.688Z,98972.47
2023-05-15T09:43:41.086Z,98962.78
2023-05-15T09:46:09.721Z,98936.09
2023-05-15T09:48:37.106Z,99026.66
2023-05-15T09:51:07.781Z,98948.34
2023-05-15T09:53:35.785Z,98911.66
2023-05-15T09:56:03.761Z,98941.19
2023-05-15T09:58:30.898Z,98950.22
2023-05-15T10:01:01.114Z,98800.63
2023-05-15T10:03:28.682Z,98815.81
2023-05-15T10:06:03.660Z,98861.38
2023-05-15T10:08:31.355Z,98759.94
2023-05-15T10:11:01.611Z,98698.19
2023-05-15T10:13:35.400Z,98740.38
2023-05-15T10:16:05.455Z,98778.31
2023-05-15T10:18:36.537Z,98658.19
2023-05-15T10:21:04.756Z,98613.03
2023-05-15T10:23:35.496Z,98784.47
2023-05-15T10:26:24.748Z,98604.63
2023-05-15T10:28:52.843Z,98525.41
2023-05-15T10:31:21.045Z,98377.16
2023-05-15T10:33:48.442Z,98451.63
2023-05-15T10:36:17.704Z,98440.19
2023-05-15T10:38:46.378Z,98422.47
2023-05-15T10:41:18.292Z,98396.59
2023-05-15T10:43:47.533Z,98466.41
2023-05-15T10:46:16.628Z,98464.53
2023-05-15T10:48:44.466Z,98419.72
2023-05-15T10:51:29.182Z,98569.19
2023-05-15T10:53:57.357Z,98441.69
2023-05-15T10:56:31.128Z,98421.19
2023-05-15T10:58:58.962Z,98368.03
2023-05-15T11:01:35.705Z,98353.09
2023-05-15T11:04:12.938Z,98217.16
2023-05-15T11:06:45.746Z,98142.31
2023-05-15T11:09:21.846Z,98189.75
2023-05-15T11:12:05.109Z,98381.19
2023-05-15T11:15:04.350Z,98131.31
2023-05-15T11:17:34.595Z,98209.97
2023-05-15T11:20:01.856Z,98236.38
2023-05-15T11:22:39.002Z,98286.22
2023-05-15T11:25:13.142Z,98298.03
2023-05-15T11:27:43.091Z,98274.69
2023-05-15T11:30:20.073Z,98291.06
2023-05-15T11:32:59.723Z,98339.81
2023-05-15T11:35:29.974Z,98364.19
2023-05-15T11:38:11.393Z,98275.41
2023-05-15T11:40:52.569Z,98271.47
2023-05-15T11:43:30.680Z,98204.28
2023-05-15T11:46:05.431Z,98101.47
2023-05-15T11:48:35.902Z,98060.88
2023-05-15T11:51:05.626Z,98180.09
2023-05-15T11:53:33.761Z,98057.22
2023-05-15T11:56:04.170Z,97911.06
2023-05-15T11:58:32.024Z,97926.59
2023-05-15T12:00:59.155Z,97891.56
2023-05-15T12:03:34.059Z,97868.44
2023-05-15T12:06:03.506Z,97896.81
2023-05-15T12:08:36.282Z,97864.84
2023-05-15T12:11:04.957Z,97903.88
2023-05-15T12:13:33.347Z,97912.09
2023-05-15T12:16:04.927Z,97924.56
2023-05-15T12:18:33.556Z,97808.09
2023-05-15T12:21:02.345Z,97753.84
2023-05-15T12:23:29.726Z,97661.31
2023-05-15T12:26:02.258Z,97686.81
2023-05-15T12:28:34.457Z,97704.47
2023-05-15T12:31:02.018Z,97631.75
2023-05-15T12:33:29.058Z,97764.84
2023-05-15T12:36:01.083Z,97811.19
2023-05-15T12:38:29.535Z,97854.84
2023-05-15T12:40:57.326Z,97753.78
2023-05-15T12:43:26.294Z,97649.06
2023-05-15T12:45:57.360Z,97468.41
2023-05-15T12:48:32.337Z,97375.13
2023-05-15T12:51:09.238Z,97474.34
2023-05-15T12:53:40.895Z,97454.72
2023-05-15T12:56:09.850Z,97402.69
2023-05-15T12:58:38.716Z,97419.31
2023-05-15T13:01:06.518Z,97400.75
2023-05-15T13:03:34.569Z,97516.88
2023-05-15T13:06:07.410Z,97596.38
2023-05-15T13:08:41.675Z,97446.16
2023-05-15T13:11:16.742Z,97518.69
2023-05-15T13:13:47.041Z,97544.72
2023-05-15T13:16:31.224Z,97604.47
2023-05-15T13:18:58.736Z,97525.16
2023-05-15T13:21:26.221Z,97658.47
2023-05-15T13:23:53.451Z,97564.19
2023-05-15T13:26:20.927Z,97537.94
2023-05-15T13:28:48.136Z,97551.28
2023-05-15T13:31:15.529Z,97471.88
2023-05-15T13:33:42.729Z,97548.63
2023-05-15T13:36:11.809Z,97335.94
2023-05-15T13:38:39.337Z,97497.31
2023-05-15T13:41:07.001Z,97483.31
2023-05-15T13:43:34.493Z,97607.31
2023-05-15T13:46:02.082Z,97638.09
2023-05-15T13:48:29.694Z,97493.81
2023-05-15T13:50:57.140Z,97583.63
2023-05-15T13:53:25.691Z,97529.13
2023-05-15T13:55:53.193Z,97653.13
2023-05-15T13:58:21.197Z,97268.97
2023-05-15T14:00:50.490Z,97520.19
2023-05-15T14:03:18.007Z,97606.25
2023-05-15T14:05:45.453Z,97585.63
2023-05-15T14:08:12.593Z,97441.19
2023-05-15T14:10:39.852Z,97516.66
2023-05-15T14:13:07.347Z,97479.00
2023-05-15T14:15:34.387Z,97535.56
2023-05-15T14:18:01.799Z,97565.28
2023-05-15T14:20:29.289Z,97510.53
2023-05-15T14:22:56.782Z,97508.41
2023-05-15T14:25:24.544Z,97351.69
2023-05-15T14:27:52.051Z,97392.94
2023-05-15T14:30:19.112Z,97414.72
2023-05-15T14:32:46.545Z,97375.19
2023-05-15T14:35:15.813Z,97394.69
2023-05-15T14:37:43.510Z,97354.25
2023-05-15T14:40:11.417Z,97448.41
2023-05-15T14:42:38.875Z,97212.09
2023-05-15T14:45:06.512Z,97236.06
2023-05-15T14:47:34.128Z,97270.50
2023-05-15T14:50:01.610Z,97264.22
2023-05-15T14:52:29.017Z,97248.34
2023-05-15T14:55:08.002Z,97214.16
2023-05-15T14:57:37.264Z,97267.88
2023-05-15T15:00:08.509Z,97164.25
2023-05-15T15:02:35.881Z,97140.59
2023-05-15T15:05:04.634Z,97087.47
2023-05-15T15:07:55.335Z,97006.06
2023-05-15T15:10:22.418Z,97021.69
2023-05-15T15:12:51.788Z,97190.59
2023-05-15T15:15:20.723Z,97426.50
2023-05-15T15:17:48.064Z,97542.97
2023-05-15T15:20:20.686Z,97623.00
2023-05-15T15:22:48.161Z,97783.88
2023-05-15T15:25:15.075Z,97930.97
2023-05-15T15:27:42.227Z,98075.72
2023-05-15T15:30:10.643Z,98205.25
2023-05-15T15:32:39.467Z,98233.25
2023-05-15T15:35:07.544Z,98283.66
2023-05-15T15:37:37.686Z,98302.41
2023-05-15T15:40:07.367Z,98353.06
2023-05-15T15:42:35.619Z,98350.22
2023-05-15T15:45:03.288Z,98372.50
2023-05-15T15:47:32.058Z,98364.13
2023-05-15T15:49:59.996Z,98353.59
2023-05-15T15:52:27.732Z,98317.25
2023-05-15T15:54:54.856Z,98317.34
2023-05-15T15:57:22.621Z,98346.25
2023-05-15T15:59:49.780Z,98314.81
2023-05-15T16:02:17.720Z,98351.72
2023-05-15T16:04:45.059Z,98349.00
2023-05-15T16:07:12.288Z,98305.34
2023-05-15T16:10:11.932Z,98315.34
2023-05-15T16:12:42.546Z,98341.84
2023-05-15T16:17:40.878Z,98397.09
2023-05-15T16:20:08.408Z,98414.19
2023-05-15T16:22:35.822Z,98516.47
2023-05-15T16:25:03.476Z,98649.16
2023-05-15T16:27:31.201Z,98753.94
2023-05-15T16:29:58.213Z,98837.09
2023-05-15T16:32:27.618Z,98895.03
2023-05-15T16:34:55.129Z,98936.91
2023-05-15T16:37:22.125Z,98990.06
2023-05-15T16:39:49.203Z,99018.03
2023-05-15T16:42:17.189Z,99032.53
2023-05-15T16:44:44.199Z,99094.16
2023-05-15T16:47:11.332Z,99122.06
2023-05-15T16:49:38.408Z,99161.09
2023-05-15T16:52:05.738Z,99170.97
2023-05-15T16:54:33.504Z,99193.09
2023-05-15T16:57:01.257Z,99209.66
2023-05-15T16:59:29.294Z,99221.34
2023-05-15T17:01:58.626Z,99204.25
2023-05-15T17:04:26.382Z,99159.84
2023-05-15T17:06:53.877Z,99143.69
2023-05-15T17:09:21.297Z,99130.84
2023-05-15T17:11:48.430Z,99176.72
2023-05-15T17:14:15.527Z,99217.38
2023-05-15T17:16:42.648Z,99239.41
2023-05-15T17:19:09.896Z,99276.63
2023-05-15T17:21:37.584Z,99321.63
2023-05-15T17:24:04.861Z,99339.69
2023-05-15T17:26:32.104Z,99322.28
2023-05-15T17:28:59.287Z,99324.25
2023-05-15T17:31:27.079Z,99366.34
2023-05-15T17:33:54.557Z,99377.56
2023-05-15T17:36:22.069Z,99399.56
2023-05-15T17:38:49.505Z,99441.75
2023-05-15T17:41:16.622Z,99489.03
2023-05-15T17:43:44.116Z,99499.91
2023-05-15T17:46:11.738Z,99524.16
2023-05-15T17:48:39.300Z,99568.00
2023-05-15T17:51:06.712Z,99611.88
2023-05-15T17:53:34.196Z,99658.88
2023-05-15T17:56:01.397Z,99701.22
2023-05-15T17:58:28.375Z,99712.84
2023-05-15T18:00:55.882Z,99756.50
2023-05-15T18:03:22.968Z,99765.59
2023-05-15T18:05:50.146Z,99823.22
2023-05-15T18:08:17.199Z,99845.19
2023-05-15T18:10:44.306Z,99839.50
2023-05-15T18:13:11.810Z,99827.34
2023-05-15T18:15:39.685Z,99826.09
2023-05-15T18:18:07.307Z,99808.56
2023-05-15T18:20:34.823Z,99824.38
2023-05-15T18:23:02.433Z,99849.22
2023-05-15T18:25:29.428Z,99840.63
2023-05-15T18:27:56.453Z,99822.13
2023-05-15T18:30:23.651Z,99823.19
2023-05-15T18:32:50.747Z,99847.38
2023-05-15T18:35:18.085Z,99861.50
2023-05-15T18:37:45.128Z,99858.78
2023-05-15T18:40:12.911Z,99864.19
2023-05-15T18:42:40.632Z,99879.38
2023-05-15T18:45:08.790Z,99877.41
2023-05-15T18:47:35.878Z,99874.84
2023-05-15T18:50:03.487Z,99882.91
2023-05-15T18:52:30.735Z,99897.09
2023-05-15T18:54:58.231Z,99921.38
2023-05-15T18:57:26.510Z,99935.56
2023-05-15T18:59:54.680Z,99956.88
2023-05-15T19:02:22.304Z,99952.53
2023-05-15T19:04:50.647Z,99969.41
2023-05-15T19:07:17.837Z,99977.28
2023-05-15T19:09:44.824Z,99972.09
2023-05-15T19:12:11.781Z,99989.75
2023-05-15T19:14:39.146Z,99996.06
2023-05-15T19:17:06.615Z,100004.09
2023-05-15T19:19:34.218Z,100013.00
2023-05-15T19:22:01.371Z,100024.47
2023-05-15T19:24:28.593Z,100031.94
2023-05-15T19:26:55.590Z,100021.22
2023-05-15T19:29:23.046Z,100007.19
2023-05-15T19:31:50.129Z,99998.22
2023-05-15T19:34:17.210Z,100002.66
2023-05-15T19:36:48.115Z,99991.44
2023-05-15T19:39:18.020Z,99998.69
2023-05-15T19:42:07.017Z,100005.91
2023-05-15T19:44:33.959Z,100017.47
2023-05-15T19:47:00.929Z,100016.84
2023-05-15T19:49:27.979Z,100036.25
2023-05-15T19:51:54.933Z,100044.44
2023-05-15T19:54:22.448Z,100064.97
2023-05-15T19:56:49.481Z,100095.06
2023-05-15T19:59:16.444Z,100103.06
2023-05-15T20:01:43.894Z,100110.34
2023-05-15T20:04:13.609Z,100113.97
2023-05-15T20:06:41.002Z,100124.50
2023-05-15T20:09:08.069Z,100125.50
2023-05-15T20:11:35.507Z,100146.78
2023-05-15T20:14:03.035Z,100160.00
2023-05-15T20:16:30.588Z,100170.72
2023-05-15T20:18:58.154Z,100186.69
2023-05-15T20:21:25.140Z,100191.97
2023-05-15T20:23:52.189Z,100213.13
2023-05-15T20:26:21.727Z,100199.06
2023-05-15T20:28:49.104Z,100216.03
2023-05-15T20:31:16.374Z,100224.00
2023-05-15T20:33:43.621Z,100248.00
2023-05-15T20:36:10.768Z,100245.41
2023-05-15T20:38:39.275Z,100235.56
2023-05-15T20:41:08.960Z,100225.81
2023-05-15T20:43:39.528Z,100218.75
2023-05-15T20:46:09.188Z,100212.53
2023-05-15T20:48:36.549Z,100209.00
2023-05-15T20:51:04.133Z,100220.56
2023-05-15T20:53:31.096Z,100227.69
2023-05-15T20:55:58.107Z,100229.47
2023-05-15T20:58:25.043Z,100233.84
2023-05-15T21:00:52.466Z,100249.81
2023-05-15T21:03:20.208Z,100255.94
2023-05-15T21:05:49.459Z,100256.88
2023-05-15T21:08:16.526Z,100267.53
2023-05-15T21:10:43.644Z,100264.88
2023-05-15T21:13:10.767Z,100258.66
2023-05-15T21:15:37.765Z,100261.34
2023-05-15T21:18:04.980Z,100252.50
2023-05-15T21:20:34.357Z,100259.59
2023-05-15T21:23:02.172Z,100244.47
2023-05-15T21:25:29.221Z,100218.78
2023-05-15T21:27:56.290Z,100197.47
2023-05-15T21:30:23.371Z,100177.94
2023-05-15T21:32:50.462Z,100175.25
2023-05-15T21:35:17.425Z,100168.13
2023-05-15T21:37:44.521Z,100152.22
2023-05-15T21:40:12.474Z,100143.38
2023-05-15T21:42:39.469Z,100123.03
2023-05-15T21:45:07.403Z,100116.84
2023-05-15T21:47:34.539Z,100107.03
2023-05-15T21:50:01.898Z,100106.16
2023-05-15T21:52:28.861Z,100076.97
2023-05-15T21:54:55.972Z,100088.56
2023-05-15T21:57:22.961Z,100052.16
2023-05-15T21:59:50.155Z,100036.19
2023-05-15T22:02:17.142Z,100016.72
2023-05-15T22:04:44.390Z,99999.91
2023-05-15T22:07:58.365Z,100017.81
2023-05-15T22:10:25.778Z,100045.34
2023-05-15T22:12:52.972Z,100044.41
2023-05-15T22:15:20.062Z,100050.63
2023-05-15T22:17:47.149Z,100038.22
2023-05-15T22:20:14.365Z,100018.78
2023-05-15T22:22:43.205Z,100012.53
2023-05-15T22:25:20.144Z,100002.88
2023-05-15T22:27:47.246Z,99983.41
2023-05-15T22:30:14.687Z,99969.25
2023-05-15T22:32:42.498Z,99971.06
2023-05-15T22:35:11.485Z,99972.84
2023-05-15T22:37:41.527Z,99975.63
2023-05-15T22:40:11.332Z,99988.94
2023-05-15T22:42:38.792Z,99986.38
2023-05-15T22:45:07.415Z,99991.66
2023-05-15T22:47:35.213Z,99997.06
2023-05-15T22:50:03.111Z,99995.25
2023-05-15T22:52:30.079Z,99992.59
2023-05-15T22:54:57.249Z,99983.75
2023-05-15T22:57:24.321Z,99978.28
2023-05-15T22:59:51.329Z,99974.06
2023-05-15T23:02:18.367Z,99980.28
2023-05-15T23:04:45.312Z,100000.66
2023-05-15T23:07:12.689Z,99997.16
2023-05-15T23:09:39.742Z,100006.91
2023-05-15T23:12:07.406Z,100013.91
2023-05-15T23:14:34.453Z,100014.78
2023-05-15T23:17:01.407Z,100017.50
2023-05-15T23:19:28.504Z,100027.25
2023-05-15T23:21:55.845Z,100031.72
2023-05-15T23:24:22.851Z,100037.03
2023-05-15T23:26:49.808Z,100040.63
2023-05-15T23:29:17.093Z,100040.66
2023-05-15T23:31:44.233Z,100050.41
2023-05-15T23:34:11.199Z,100058.41
2023-05-15T23:36:38.200Z,100066.41
2023-05-15T23:39:05.395Z,100069.03
2023-05-15T23:41:32.350Z,100077.03
2023-05-15T23:43:59.321Z,100093.00
2023-05-15T23:46:26.349Z,100100.09
2023-05-15T23:48:53.377Z,100108.06
2023-05-15T23:51:20.554Z,100106.28
2023-05-15T23:53:49.435Z,100118.72
2023-05-15T23:56:16.389Z,100115.16
2023-05-15T23:58:43.401Z,100120.50
